sensor_id;sensor_type;location;lat;lon;timestamp;temperature;humidity
64670;DHT22;51080;51.690;5.174;2022-10-31T00:04:49;12.90;81.20
64670;DHT22;51080;51.690;5.174;2022-10-31T00:10:39;12.90;81.30
64670;DHT22;51080;51.690;5.174;2022-10-31T00:16:28;12.90;81.30
64670;DHT22;51080;51.690;5.174;2022-10-31T00:22:18;12.80;81.50
64670;DHT22;51080;51.690;5.174;2022-10-31T00:28:07;12.80;81.50
64670;DHT22;51080;51.690;5.174;2022-10-31T00:33:57;12.80;81.60
64670;DHT22;51080;51.690;5.174;2022-10-31T00:39:47;12.70;81.70
64670;DHT22;51080;51.690;5.174;2022-10-31T00:45:35;12.70;81.60
64670;DHT22;51080;51.690;5.174;2022-10-31T00:51:26;12.70;81.60
64670;DHT22;51080;51.690;5.174;2022-10-31T00:57:19;12.60;81.60
64670;DHT22;51080;51.690;5.174;2022-10-31T01:03:08;12.60;81.70
64670;DHT22;51080;51.690;5.174;2022-10-31T01:08:59;12.60;81.80
64670;DHT22;51080;51.690;5.174;2022-10-31T01:14:48;12.50;81.70
64670;DHT22;51080;51.690;5.174;2022-10-31T01:20:39;12.50;81.70
64670;DHT22;51080;51.690;5.174;2022-10-31T01:26:32;12.50;81.70
64670;DHT22;51080;51.690;5.174;2022-10-31T01:32:21;12.40;81.70
64670;DHT22;51080;51.690;5.174;2022-10-31T01:38:10;12.40;81.70
64670;DHT22;51080;51.690;5.174;2022-10-31T01:50:14;12.30;81.60
64670;DHT22;51080;51.690;5.174;2022-10-31T01:56:03;12.20;81.50
64670;DHT22;51080;51.690;5.174;2022-10-31T02:01:51;12.10;81.40
64670;DHT22;51080;51.690;5.174;2022-10-31T02:08:00;12.00;81.30
64670;DHT22;51080;51.690;5.174;2022-10-31T02:13:48;11.90;81.40
64670;DHT22;51080;51.690;5.174;2022-10-31T02:45:14;11.70;82.00
64670;DHT22;51080;51.690;5.174;2022-10-31T02:51:08;11.60;81.90
64670;DHT22;51080;51.690;5.174;2022-10-31T02:57:02;11.50;81.90
64670;DHT22;51080;51.690;5.174;2022-10-31T03:09:22;11.30;81.90
64670;DHT22;51080;51.690;5.174;2022-10-31T03:15:30;11.30;81.90
64670;DHT22;51080;51.690;5.174;2022-10-31T03:21:32;11.20;81.90
64670;DHT22;51080;51.690;5.174;2022-10-31T03:27:31;11.20;81.90
64670;DHT22;51080;51.690;5.174;2022-10-31T03:33:29;11.10;82.10
64670;DHT22;51080;51.690;5.174;2022-10-31T03:39:21;11.10;82.20
64670;DHT22;51080;51.690;5.174;2022-10-31T03:45:29;11.10;82.70
64670;DHT22;51080;51.690;5.174;2022-10-31T04:03:44;11.00;82.50
64670;DHT22;51080;51.690;5.174;2022-10-31T04:09:34;11.00;82.50
64670;DHT22;51080;51.690;5.174;2022-10-31T04:15:23;10.90;82.40
64670;DHT22;51080;51.690;5.174;2022-10-31T04:21:14;10.90;82.60
64670;DHT22;51080;51.690;5.174;2022-10-31T04:27:02;10.90;82.80
64670;DHT22;51080;51.690;5.174;2022-10-31T04:32:50;10.90;83.00
64670;DHT22;51080;51.690;5.174;2022-10-31T04:38:39;10.90;82.90
64670;DHT22;51080;51.690;5.174;2022-10-31T04:44:28;10.90;83.10
64670;DHT22;51080;51.690;5.174;2022-10-31T04:50:18;10.90;82.90
64670;DHT22;51080;51.690;5.174;2022-10-31T04:56:07;10.80;82.90
64670;DHT22;51080;51.690;5.174;2022-10-31T05:01:57;10.90;82.90
64670;DHT22;51080;51.690;5.174;2022-10-31T05:07:47;10.90;83.00
64670;DHT22;51080;51.690;5.174;2022-10-31T05:13:35;10.90;83.00
64670;DHT22;51080;51.690;5.174;2022-10-31T05:19:29;10.80;82.80
64670;DHT22;51080;51.690;5.174;2022-10-31T05:25:20;10.80;82.80
64670;DHT22;51080;51.690;5.174;2022-10-31T05:31:17;10.70;82.60
64670;DHT22;51080;51.690;5.174;2022-10-31T05:37:10;10.70;82.70
64670;DHT22;51080;51.690;5.174;2022-10-31T05:43:01;10.70;82.60
64670;DHT22;51080;51.690;5.174;2022-10-31T05:48:52;10.70;82.50
64670;DHT22;51080;51.690;5.174;2022-10-31T05:54:44;10.60;82.30
64670;DHT22;51080;51.690;5.174;2022-10-31T06:00:42;10.50;82.70
64670;DHT22;51080;51.690;5.174;2022-10-31T06:06:35;10.50;83.10
64670;DHT22;51080;51.690;5.174;2022-10-31T06:12:18;10.50;83.50
64670;DHT22;51080;51.690;5.174;2022-10-31T06:18:33;10.60;84.20
64670;DHT22;51080;51.690;5.174;2022-10-31T06:24:18;10.60;84.30
64670;DHT22;51080;51.690;5.174;2022-10-31T06:30:32;10.60;83.70
64670;DHT22;51080;51.690;5.174;2022-10-31T06:36:46;10.60;83.90
64670;DHT22;51080;51.690;5.174;2022-10-31T06:42:30;10.60;83.70
64670;DHT22;51080;51.690;5.174;2022-10-31T06:48:14;10.60;83.60
64670;DHT22;51080;51.690;5.174;2022-10-31T06:53:57;10.60;84.00
64670;DHT22;51080;51.690;5.174;2022-10-31T07:00:12;10.60;84.30
64670;DHT22;51080;51.690;5.174;2022-10-31T07:06:26;10.70;84.60
64670;DHT22;51080;51.690;5.174;2022-10-31T07:12:09;10.70;84.80
64670;DHT22;51080;51.690;5.174;2022-10-31T07:17:52;10.70;84.40
64670;DHT22;51080;51.690;5.174;2022-10-31T07:23:36;10.80;84.60
64670;DHT22;51080;51.690;5.174;2022-10-31T07:29:20;10.90;85.10
64670;DHT22;51080;51.690;5.174;2022-10-31T07:35:04;10.90;85.20
64670;DHT22;51080;51.690;5.174;2022-10-31T07:40:52;11.00;85.10
64670;DHT22;51080;51.690;5.174;2022-10-31T07:46:36;11.20;85.00
64670;DHT22;51080;51.690;5.174;2022-10-31T07:52:19;11.30;85.20
64670;DHT22;51080;51.690;5.174;2022-10-31T07:58:08;11.40;85.10
64670;DHT22;51080;51.690;5.174;2022-10-31T08:03:52;11.60;85.60
64670;DHT22;51080;51.690;5.174;2022-10-31T08:09:36;11.80;86.20
64670;DHT22;51080;51.690;5.174;2022-10-31T08:15:18;11.90;86.20
64670;DHT22;51080;51.690;5.174;2022-10-31T08:21:02;12.10;86.30
64670;DHT22;51080;51.690;5.174;2022-10-31T08:26:46;12.40;86.70
64670;DHT22;51080;51.690;5.174;2022-10-31T08:32:30;12.50;86.20
64670;DHT22;51080;51.690;5.174;2022-10-31T08:38:14;12.80;86.40
64670;DHT22;51080;51.690;5.174;2022-10-31T08:44:27;13.00;86.40
64670;DHT22;51080;51.690;5.174;2022-10-31T08:50:11;13.20;86.10
64670;DHT22;51080;51.690;5.174;2022-10-31T08:55:56;13.40;85.90
64670;DHT22;51080;51.690;5.174;2022-10-31T09:01:40;13.60;86.00
64670;DHT22;51080;51.690;5.174;2022-10-31T09:07:23;13.70;85.80
64670;DHT22;51080;51.690;5.174;2022-10-31T09:13:09;13.90;85.50
64670;DHT22;51080;51.690;5.174;2022-10-31T09:18:53;14.00;85.40
64670;DHT22;51080;51.690;5.174;2022-10-31T09:24:37;14.20;85.40
64670;DHT22;51080;51.690;5.174;2022-10-31T09:30:21;14.40;85.90
64670;DHT22;51080;51.690;5.174;2022-10-31T09:36:05;14.50;85.40
64670;DHT22;51080;51.690;5.174;2022-10-31T09:42:20;14.50;85.50
64670;DHT22;51080;51.690;5.174;2022-10-31T09:55:02;14.70;85.80
64670;DHT22;51080;51.690;5.174;2022-10-31T10:00:47;14.90;85.10
64670;DHT22;51080;51.690;5.174;2022-10-31T10:06:34;15.10;84.70
64670;DHT22;51080;51.690;5.174;2022-10-31T10:12:43;15.10;84.50
64670;DHT22;51080;51.690;5.174;2022-10-31T10:24:59;15.20;84.20
64670;DHT22;51080;51.690;5.174;2022-10-31T10:31:20;15.20;84.30
64670;DHT22;51080;51.690;5.174;2022-10-31T10:37:12;15.10;84.90
64670;DHT22;51080;51.690;5.174;2022-10-31T10:43:11;15.10;84.90
64670;DHT22;51080;51.690;5.174;2022-10-31T11:01:59;15.20;85.50
64670;DHT22;51080;51.690;5.174;2022-10-31T11:07:44;15.20;85.10
64670;DHT22;51080;51.690;5.174;2022-10-31T11:13:26;15.30;85.00
64670;DHT22;51080;51.690;5.174;2022-10-31T11:19:19;15.30;85.00
64670;DHT22;51080;51.690;5.174;2022-10-31T11:25:33;15.30;85.30
64670;DHT22;51080;51.690;5.174;2022-10-31T11:31:17;15.40;85.70
64670;DHT22;51080;51.690;5.174;2022-10-31T11:37:12;15.50;85.10
64670;DHT22;51080;51.690;5.174;2022-10-31T11:42:58;15.60;85.30
64670;DHT22;51080;51.690;5.174;2022-10-31T11:48:50;15.70;85.30
64670;DHT22;51080;51.690;5.174;2022-10-31T11:54:46;15.80;85.00
64670;DHT22;51080;51.690;5.174;2022-10-31T12:00:33;16.00;84.90
64670;DHT22;51080;51.690;5.174;2022-10-31T12:06:24;16.10;84.40
64670;DHT22;51080;51.690;5.174;2022-10-31T12:25:01;16.30;84.10
64670;DHT22;51080;51.690;5.174;2022-10-31T12:37:13;16.50;83.70
64670;DHT22;51080;51.690;5.174;2022-10-31T12:43:40;16.60;83.70
64670;DHT22;51080;51.690;5.174;2022-10-31T12:49:55;16.60;83.40
64670;DHT22;51080;51.690;5.174;2022-10-31T12:56:28;16.70;83.00
64670;DHT22;51080;51.690;5.174;2022-10-31T13:02:19;16.80;82.90
64670;DHT22;51080;51.690;5.174;2022-10-31T13:08:13;16.90;82.50
64670;DHT22;51080;51.690;5.174;2022-10-31T13:14:23;17.00;82.00
64670;DHT22;51080;51.690;5.174;2022-10-31T13:20:29;17.00;82.00
64670;DHT22;51080;51.690;5.174;2022-10-31T13:26:20;17.10;81.60
64670;DHT22;51080;51.690;5.174;2022-10-31T13:32:07;17.10;81.60
64670;DHT22;51080;51.690;5.174;2022-10-31T13:38:26;17.20;81.50
64670;DHT22;51080;51.690;5.174;2022-10-31T13:44:22;17.20;81.00
64670;DHT22;51080;51.690;5.174;2022-10-31T13:50:39;17.20;81.10
64670;DHT22;51080;51.690;5.174;2022-10-31T13:56:32;17.20;81.00
64670;DHT22;51080;51.690;5.174;2022-10-31T14:02:22;17.10;81.10
64670;DHT22;51080;51.690;5.174;2022-10-31T14:08:17;17.10;81.20
64670;DHT22;51080;51.690;5.174;2022-10-31T14:14:01;17.00;81.30
64670;DHT22;51080;51.690;5.174;2022-10-31T14:20:24;17.00;81.40
64670;DHT22;51080;51.690;5.174;2022-10-31T14:32:43;17.00;81.30
64670;DHT22;51080;51.690;5.174;2022-10-31T14:45:06;17.00;80.90
64670;DHT22;51080;51.690;5.174;2022-10-31T14:50:54;16.90;80.30
64670;DHT22;51080;51.690;5.174;2022-10-31T14:56:53;16.90;80.10
64670;DHT22;51080;51.690;5.174;2022-10-31T15:08:48;16.90;80.10
64670;DHT22;51080;51.690;5.174;2022-10-31T15:14:31;16.90;79.50
64670;DHT22;51080;51.690;5.174;2022-10-31T15:20:21;16.90;79.50
64670;DHT22;51080;51.690;5.174;2022-10-31T15:26:06;16.90;79.10
64670;DHT22;51080;51.690;5.174;2022-10-31T15:31:57;16.70;78.90
64670;DHT22;51080;51.690;5.174;2022-10-31T15:38:11;16.60;78.90
64670;DHT22;51080;51.690;5.174;2022-10-31T15:44:01;16.40;79.10
64670;DHT22;51080;51.690;5.174;2022-10-31T15:49:53;16.30;79.50
64670;DHT22;51080;51.690;5.174;2022-10-31T15:56:11;16.10;79.90
64670;DHT22;51080;51.690;5.174;2022-10-31T16:02:07;16.00;80.20
64670;DHT22;51080;51.690;5.174;2022-10-31T16:14:22;15.60;80.70
64670;DHT22;51080;51.690;5.174;2022-10-31T16:20:18;15.50;80.80
64670;DHT22;51080;51.690;5.174;2022-10-31T16:25:57;15.30;81.00
64670;DHT22;51080;51.690;5.174;2022-10-31T16:31:40;15.20;81.30
64670;DHT22;51080;51.690;5.174;2022-10-31T16:37:24;15.00;81.50
64670;DHT22;51080;51.690;5.174;2022-10-31T16:43:11;14.90;81.80
64670;DHT22;51080;51.690;5.174;2022-10-31T16:48:55;14.80;81.80
64670;DHT22;51080;51.690;5.174;2022-10-31T16:55:12;14.70;82.00
64670;DHT22;51080;51.690;5.174;2022-10-31T17:00:58;14.60;82.40
64670;DHT22;51080;51.690;5.174;2022-10-31T17:06:42;14.50;82.40
64670;DHT22;51080;51.690;5.174;2022-10-31T17:12:26;14.50;82.50
64670;DHT22;51080;51.690;5.174;2022-10-31T17:18:14;14.40;82.50
64670;DHT22;51080;51.690;5.174;2022-10-31T17:23:59;14.30;82.70
64670;DHT22;51080;51.690;5.174;2022-10-31T17:29:43;14.20;82.90
64670;DHT22;51080;51.690;5.174;2022-10-31T17:41:40;14.10;83.50
64670;DHT22;51080;51.690;5.174;2022-10-31T17:47:48;14.10;83.50
64670;DHT22;51080;51.690;5.174;2022-10-31T17:53:53;14.10;83.40
64670;DHT22;51080;51.690;5.174;2022-10-31T17:59:57;14.20;83.20
64670;DHT22;51080;51.690;5.174;2022-10-31T18:12:05;14.10;82.70
64670;DHT22;51080;51.690;5.174;2022-10-31T18:18:14;14.10;83.00
64670;DHT22;51080;51.690;5.174;2022-10-31T18:24:17;14.00;83.00
64670;DHT22;51080;51.690;5.174;2022-10-31T18:30:22;14.00;83.00
64670;DHT22;51080;51.690;5.174;2022-10-31T18:36:26;14.00;83.00
64670;DHT22;51080;51.690;5.174;2022-10-31T18:42:29;14.00;83.00
64670;DHT22;51080;51.690;5.174;2022-10-31T18:48:32;13.90;82.90
64670;DHT22;51080;51.690;5.174;2022-10-31T18:54:36;13.90;82.90
64670;DHT22;51080;51.690;5.174;2022-10-31T19:00:40;13.90;82.90
64670;DHT22;51080;51.690;5.174;2022-10-31T19:06:46;13.80;83.00
64670;DHT22;51080;51.690;5.174;2022-10-31T19:19:00;13.70;83.00
64670;DHT22;51080;51.690;5.174;2022-10-31T19:25:06;13.80;82.60
64670;DHT22;51080;51.690;5.174;2022-10-31T19:31:11;13.70;82.80
64670;DHT22;51080;51.690;5.174;2022-10-31T19:37:15;13.70;82.80
64670;DHT22;51080;51.690;5.174;2022-10-31T19:43:19;13.70;82.70
64670;DHT22;51080;51.690;5.174;2022-10-31T19:49:23;13.70;82.70
64670;DHT22;51080;51.690;5.174;2022-10-31T19:55:28;13.70;82.60
64670;DHT22;51080;51.690;5.174;2022-10-31T20:01:31;13.70;82.60
64670;DHT22;51080;51.690;5.174;2022-10-31T20:07:35;13.70;82.40
64670;DHT22;51080;51.690;5.174;2022-10-31T20:13:39;13.70;82.40
64670;DHT22;51080;51.690;5.174;2022-10-31T20:19:43;13.70;82.20
64670;DHT22;51080;51.690;5.174;2022-10-31T20:25:48;13.70;82.30
64670;DHT22;51080;51.690;5.174;2022-10-31T20:31:42;13.70;82.20
64670;DHT22;51080;51.690;5.174;2022-10-31T20:37:47;13.70;82.00
64670;DHT22;51080;51.690;5.174;2022-10-31T20:43:41;13.70;82.00
64670;DHT22;51080;51.690;5.174;2022-10-31T20:49:31;13.70;81.80
64670;DHT22;51080;51.690;5.174;2022-10-31T20:55:23;13.70;81.70
64670;DHT22;51080;51.690;5.174;2022-10-31T21:01:19;13.70;81.60
64670;DHT22;51080;51.690;5.174;2022-10-31T21:07:24;13.70;81.60
64670;DHT22;51080;51.690;5.174;2022-10-31T21:13:26;13.70;81.60
64670;DHT22;51080;51.690;5.174;2022-10-31T21:19:21;13.70;81.30
64670;DHT22;51080;51.690;5.174;2022-10-31T21:25:17;13.70;81.10
64670;DHT22;51080;51.690;5.174;2022-10-31T21:31:11;13.80;81.00
64670;DHT22;51080;51.690;5.174;2022-10-31T21:37:17;13.70;81.00
64670;DHT22;51080;51.690;5.174;2022-10-31T21:43:13;13.80;81.00
64670;DHT22;51080;51.690;5.174;2022-10-31T21:49:05;13.80;80.50
64670;DHT22;51080;51.690;5.174;2022-10-31T21:55:10;13.90;80.40
64670;DHT22;51080;51.690;5.174;2022-10-31T22:01:03;13.90;80.50
64670;DHT22;51080;51.690;5.174;2022-10-31T22:06:56;14.00;79.90
64670;DHT22;51080;51.690;5.174;2022-10-31T22:12:52;14.10;79.70
